sensor_id;sensor_type;location;lat;lon;timestamp;pressure;altitude;pressure_sealevel;temperature;humidity
498;BME280;39559;48.630;9.162;2023-05-20T00:00:47;97570.41;;;9.14;100.00
498;BME280;39559;48.630;9.162;2023-05-20T00:03:14;97569.34;;;9.20;100.00
498;BME280;39559;48.630;9.162;2023-05-20T00:05:40;97559.91;;;9.19;100.00
498;BME280;39559;48.630;9.162;2023-05-20T00:08:05;97565.25;;;9.14;100.00
498;BME280;39559;48.630;9.162;2023-05-20T00:10:34;97570.09;;;9.23;100.00
498;BME280;39559;48.630;9.162;2023-05-20T00:13:00;97569.19;;;9.25;100.00
498;BME280;39559;48.630;9.162;2023-05-20T00:15:26;97564.81;;;9.27;100.00
498;BME280;39559;48.630;9.162;2023-05-20T00:17:51;97565.50;;;9.32;100.00
498;BME280;39559;48.630;9.162;2023-05-20T00:22:16;97561.09;;;9.34;100.00
498;BME280;39559;48.630;9.162;2023-05-20T00:24:42;97554.00;;;9.39;100.00
498;BME280;39559;48.630;9.162;2023-05-20T00:27:07;97552.41;;;9.35;100.00
498;BME280;39559;48.630;9.162;2023-05-20T00:29:43;97548.13;;;9.34;100.00
498;BME280;39559;48.630;9.162;2023-05-20T00:32:09;97553.22;;;9.37;100.00
498;BME280;39559;48.630;9.162;2023-05-20T00:34:35;97552.19;;;9.41;100.00
498;BME280;39559;48.630;9.162;2023-05-20T00:37:00;97554.84;;;9.39;100.00
498;BME280;39559;48.630;9.162;2023-05-20T00:39:26;97552.13;;;9.43;100.00
498;BME280;39559;48.630;9.162;2023-05-20T00:41:52;97553.09;;;9.40;100.00
498;BME280;39559;48.630;9.162;2023-05-20T00:46:28;97554.00;;;9.39;100.00
498;BME280;39559;48.630;9.162;2023-05-20T00:48:54;97549.56;;;9.43;100.00
498;BME280;39559;48.630;9.162;2023-05-20T00:51:20;97553.22;;;9.37;100.00
498;BME280;39559;48.630;9.162;2023-05-20T00:53:46;97549.50;;;9.44;100.00
498;BME280;39559;48.630;9.162;2023-05-20T00:56:11;97549.50;;;9.44;100.00
498;BME280;39559;48.630;9.162;2023-05-20T00:58:39;97543.63;;;9.39;100.00
498;BME280;39559;48.630;9.162;2023-05-20T01:01:04;97539.34;;;9.38;100.00
498;BME280;39559;48.630;9.162;2023-05-20T01:03:31;97545.59;;;9.32;100.00
498;BME280;39559;48.630;9.162;2023-05-20T01:05:56;97547.41;;;9.30;100.00
498;BME280;39559;48.630;9.162;2023-05-20T01:10:13;97538.72;;;9.31;100.00
498;BME280;39559;48.630;9.162;2023-05-20T01:12:45;97532.47;;;9.37;100.00
498;BME280;39559;48.630;9.162;2023-05-20T01:15:14;97533.31;;;9.37;100.00
498;BME280;39559;48.630;9.162;2023-05-20T01:17:44;97531.00;;;9.30;100.00
498;BME280;39559;48.630;9.162;2023-05-20T01:20:13;97530.88;;;9.33;100.00
498;BME280;39559;48.630;9.162;2023-05-20T01:22:55;97524.19;;;9.27;100.00
498;BME280;39559;48.630;9.162;2023-05-20T01:25:22;97524.53;;;9.18;100.00
498;BME280;39559;48.630;9.162;2023-05-20T01:27:49;97515.81;;;9.20;100.00
498;BME280;39559;48.630;9.162;2023-05-20T01:30:17;97517.53;;;9.20;100.00
498;BME280;39559;48.630;9.162;2023-05-20T01:34:10;97516.66;;;9.21;100.00
498;BME280;39559;48.630;9.162;2023-05-20T01:36:36;97517.38;;;9.25;100.00
498;BME280;39559;48.630;9.162;2023-05-20T01:39:03;97515.63;;;9.25;100.00
498;BME280;39559;48.630;9.162;2023-05-20T01:41:30;97517.25;;;9.28;100.00
498;BME280;39559;48.630;9.162;2023-05-20T01:43:59;97510.50;;;9.23;100.00
498;BME280;39559;48.630;9.162;2023-05-20T01:46:25;97517.53;;;9.20;100.00
498;BME280;39559;48.630;9.162;2023-05-20T01:48:51;97521.00;;;9.20;100.00
498;BME280;39559;48.630;9.162;2023-05-20T01:51:16;97515.13;;;9.15;100.00
498;BME280;39559;48.630;9.162;2023-05-20T01:53:42;97515.13;;;9.15;100.00
498;BME280;39559;48.630;9.162;2023-05-20T01:58:08;97509.31;;;9.09;100.00
498;BME280;39559;48.630;9.162;2023-05-20T02:00:34;97517.75;;;8.90;100.00
498;BME280;39559;48.630;9.162;2023-05-20T02:03:00;97503.13;;;8.88;100.00
498;BME280;39559;48.630;9.162;2023-05-20T02:05:27;97510.25;;;8.82;100.00
498;BME280;39559;48.630;9.162;2023-05-20T02:07:52;97511.72;;;8.90;100.00
498;BME280;39559;48.630;9.162;2023-05-20T02:10:18;97503.22;;;8.86;100.00
498;BME280;39559;48.630;9.162;2023-05-20T02:12:43;97507.91;;;8.75;100.00
498;BME280;39559;48.630;9.162;2023-05-20T02:15:10;97505.16;;;8.79;100.00
498;BME280;39559;48.630;9.162;2023-05-20T02:17:36;97507.06;;;8.74;100.00
498;BME280;39559;48.630;9.162;2023-05-20T02:22:06;97502.25;;;8.89;100.00
498;BME280;39559;48.630;9.162;2023-05-20T02:24:31;97513.41;;;8.65;100.00
498;BME280;39559;48.630;9.162;2023-05-20T02:26:57;97512.84;;;8.57;100.00
498;BME280;39559;48.630;9.162;2023-05-20T02:29:24;97510.44;;;8.51;100.00
498;BME280;39559;48.630;9.162;2023-05-20T02:31:53;97505.22;;;8.53;100.00
498;BME280;39559;48.630;9.162;2023-05-20T02:34:19;97507.19;;;8.46;100.00
498;BME280;39559;48.630;9.162;2023-05-20T02:36:45;97512.97;;;8.53;100.00
498;BME280;39559;48.630;9.162;2023-05-20T02:39:11;97512.25;;;8.49;100.00
498;BME280;39559;48.630;9.162;2023-05-20T02:41:37;97516.53;;;8.75;100.00
498;BME280;39559;48.630;9.162;2023-05-20T02:46:04;97517.97;;;8.59;100.00
498;BME280;39559;48.630;9.162;2023-05-20T02:48:30;97511.00;;;8.61;100.00
498;BME280;39559;48.630;9.162;2023-05-20T02:50:55;97514.47;;;8.60;100.00
498;BME280;39559;48.630;9.162;2023-05-20T02:53:21;97510.78;;;8.67;100.00
498;BME280;39559;48.630;9.162;2023-05-20T02:55:46;97513.69;;;8.58;100.00
498;BME280;39559;48.630;9.162;2023-05-20T02:58:13;97511.94;;;8.58;100.00
498;BME280;39559;48.630;9.162;2023-05-20T03:00:39;97508.41;;;8.61;100.00
498;BME280;39559;48.630;9.162;2023-05-20T03:03:08;97511.00;;;8.61;100.00
498;BME280;39559;48.630;9.162;2023-05-20T03:05:37;97512.78;;;8.59;100.00
498;BME280;39559;48.630;9.162;2023-05-20T03:10:02;97516.47;;;8.52;100.00
498;BME280;39559;48.630;9.162;2023-05-20T03:12:29;97515.78;;;8.47;100.00
498;BME280;39559;48.630;9.162;2023-05-20T03:14:55;97517.94;;;8.60;100.00
498;BME280;39559;48.630;9.162;2023-05-20T03:17:23;97517.94;;;8.60;100.00
498;BME280;39559;48.630;9.162;2023-05-20T03:19:48;97512.09;;;8.54;100.00
498;BME280;39559;48.630;9.162;2023-05-20T03:22:14;97515.69;;;8.50;100.00
498;BME280;39559;48.630;9.162;2023-05-20T03:24:39;97511.31;;;8.52;100.00
498;BME280;39559;48.630;9.162;2023-05-20T03:27:05;97506.19;;;8.50;100.00
498;BME280;39559;48.630;9.162;2023-05-20T03:29:31;97509.75;;;8.71;100.00
498;BME280;39559;48.630;9.162;2023-05-20T03:34:00;97515.69;;;8.75;100.00
498;BME280;39559;48.630;9.162;2023-05-20T03:36:25;97515.09;;;8.67;100.00
498;BME280;39559;48.630;9.162;2023-05-20T03:38:51;97522.88;;;8.67;100.00
498;BME280;39559;48.630;9.162;2023-05-20T03:41:16;97519.56;;;8.63;100.00
498;BME280;39559;48.630;9.162;2023-05-20T03:43:42;97521.34;;;8.61;100.00
498;BME280;39559;48.630;9.162;2023-05-20T03:46:08;97515.47;;;8.56;100.00
498;BME280;39559;48.630;9.162;2023-05-20T03:48:34;97517.31;;;8.52;100.00
498;BME280;39559;48.630;9.162;2023-05-20T03:50:59;97512.16;;;8.52;100.00
498;BME280;39559;48.630;9.162;2023-05-20T03:53:26;97517.31;;;8.52;100.00
498;BME280;39559;48.630;9.162;2023-05-20T03:57:58;97517.22;;;8.55;100.00
498;BME280;39559;48.630;9.162;2023-05-20T04:02:53;97516.13;;;8.62;100.00
498;BME280;39559;48.630;9.162;2023-05-20T04:05:20;97514.06;;;8.72;100.00
498;BME280;39559;48.630;9.162;2023-05-20T04:07:45;97509.66;;;8.74;100.00
498;BME280;39559;48.630;9.162;2023-05-20T04:10:11;97516.53;;;8.75;100.00
498;BME280;39559;48.630;9.162;2023-05-20T04:12:37;97513.81;;;8.78;100.00
498;BME280;39559;48.630;9.162;2023-05-20T04:15:02;97513.09;;;8.75;100.00
498;BME280;39559;48.630;9.162;2023-05-20T04:17:29;97512.75;;;8.84;100.00
498;BME280;39559;48.630;9.162;2023-05-20T04:21:56;97501.38;;;8.90;100.00
498;BME280;39559;48.630;9.162;2023-05-20T04:24:21;97505.63;;;8.91;100.00
498;BME280;39559;48.630;9.162;2023-05-20T04:26:51;97507.28;;;8.93;100.00
498;BME280;39559;48.630;9.162;2023-05-20T04:29:17;97500.69;;;8.84;100.00
498;BME280;39559;48.630;9.162;2023-05-20T04:31:44;97503.13;;;8.88;100.00
498;BME280;39559;48.630;9.162;2023-05-20T04:34:10;97496.06;;;8.93;100.00
498;BME280;39559;48.630;9.162;2023-05-20T04:36:36;97502.66;;;9.01;100.00
498;BME280;39559;48.630;9.162;2023-05-20T04:39:03;97501.78;;;9.26;100.00
498;BME280;39559;48.630;9.162;2023-05-20T04:41:29;97506.34;;;9.19;100.00
498;BME280;39559;48.630;9.162;2023-05-20T04:45:58;97511.34;;;9.24;100.00
498;BME280;39559;48.630;9.162;2023-05-20T04:48:31;97500.81;;;9.29;100.00
498;BME280;39559;48.630;9.162;2023-05-20T04:50:56;97494.53;;;9.34;100.00
498;BME280;39559;48.630;9.162;2023-05-20T04:53:22;97493.59;;;9.37;100.00
498;BME280;39559;48.630;9.162;2023-05-20T04:55:53;97488.81;;;9.50;100.00
498;BME280;39559;48.630;9.162;2023-05-20T04:58:19;97496.16;;;9.60;100.00
498;BME280;39559;48.630;9.162;2023-05-20T05:00:49;97502.50;;;9.53;100.00
498;BME280;39559;48.630;9.162;2023-05-20T05:03:21;97501.16;;;9.65;100.00
498;BME280;39559;48.630;9.162;2023-05-20T05:05:47;97507.00;;;9.70;100.00
498;BME280;39559;48.630;9.162;2023-05-20T05:10:00;97502.09;;;9.86;100.00
498;BME280;39559;48.630;9.162;2023-05-20T05:12:26;97501.94;;;9.89;100.00
498;BME280;39559;48.630;9.162;2023-05-20T05:14:51;97498.25;;;9.95;100.00
498;BME280;39559;48.630;9.162;2023-05-20T05:17:17;97489.41;;;10.01;100.00
498;BME280;39559;48.630;9.162;2023-05-20T05:19:43;97487.41;;;10.07;100.00
498;BME280;39559;48.630;9.162;2023-05-20T05:22:08;97490.75;;;10.09;100.00
498;BME280;39559;48.630;9.162;2023-05-20T05:24:34;97484.25;;;10.21;100.00
498;BME280;39559;48.630;9.162;2023-05-20T05:26:59;97478.72;;;10.29;100.00
498;BME280;39559;48.630;9.162;2023-05-20T05:29:25;97470.72;;;10.35;100.00
498;BME280;39559;48.630;9.162;2023-05-20T05:33:52;97475.97;;;10.54;100.00
498;BME280;39559;48.630;9.162;2023-05-20T05:36:17;97474.81;;;10.61;100.00
498;BME280;39559;48.630;9.162;2023-05-20T05:38:43;97465.91;;;10.67;100.00
498;BME280;39559;48.630;9.162;2023-05-20T05:41:09;97464.53;;;10.79;100.00
498;BME280;39559;48.630;9.162;2023-05-20T05:43:34;97460.63;;;10.89;100.00
498;BME280;39559;48.630;9.162;2023-05-20T05:46:00;97457.47;;;11.01;100.00
498;BME280;39559;48.630;9.162;2023-05-20T05:48:26;97463.16;;;11.09;100.00
498;BME280;39559;48.630;9.162;2023-05-20T05:50:51;97462.34;;;11.28;100.00
498;BME280;39559;48.630;9.162;2023-05-20T05:53:17;97459.66;;;11.29;100.00
498;BME280;39559;48.630;9.162;2023-05-20T05:57:46;97465.28;;;11.39;100.00
498;BME280;39559;48.630;9.162;2023-05-20T06:00:12;97458.97;;;11.45;100.00
498;BME280;39559;48.630;9.162;2023-05-20T06:02:38;97455.69;;;11.59;100.00
498;BME280;39559;48.630;9.162;2023-05-20T06:05:04;97454.28;;;11.70;100.00
498;BME280;39559;48.630;9.162;2023-05-20T06:07:29;97452.38;;;11.74;100.00
498;BME280;39559;48.630;9.162;2023-05-20T06:09:55;97456.38;;;11.81;100.00
498;BME280;39559;48.630;9.162;2023-05-20T06:12:21;97453.00;;;11.79;100.00
498;BME280;39559;48.630;9.162;2023-05-20T06:14:47;97457.44;;;11.96;100.00
498;BME280;39559;48.630;9.162;2023-05-20T06:17:13;97458.44;;;11.94;100.00
498;BME280;39559;48.630;9.162;2023-05-20T06:21:46;97451.84;;;12.04;100.00
498;BME280;39559;48.630;9.162;2023-05-20T06:24:12;97451.69;;;12.07;100.00
498;BME280;39559;48.630;9.162;2023-05-20T06:26:37;97454.28;;;12.07;100.00
498;BME280;39559;48.630;9.162;2023-05-20T06:29:03;97455.38;;;12.20;100.00
498;BME280;39559;48.630;9.162;2023-05-20T06:31:28;97448.78;;;12.31;100.00
498;BME280;39559;48.630;9.162;2023-05-20T06:33:54;97444.97;;;12.38;100.00
498;BME280;39559;48.630;9.162;2023-05-20T06:36:20;97444.88;;;12.39;100.00
498;BME280;39559;48.630;9.162;2023-05-20T06:38:46;97434.75;;;12.51;100.00
498;BME280;39559;48.630;9.162;2023-05-20T06:41:11;97435.53;;;12.53;100.00
498;BME280;39559;48.630;9.162;2023-05-20T06:45:46;97429.84;;;12.62;100.00
498;BME280;39559;48.630;9.162;2023-05-20T06:48:12;97429.63;;;12.66;100.00
498;BME280;39559;48.630;9.162;2023-05-20T06:50:37;97428.97;;;12.79;100.00
498;BME280;39559;48.630;9.162;2023-05-20T06:53:03;97424.41;;;12.66;100.00
498;BME280;39559;48.630;9.162;2023-05-20T06:55:29;97421.91;;;12.81;100.00
498;BME280;39559;48.630;9.162;2023-05-20T06:57:55;97428.78;;;12.82;100.00
498;BME280;39559;48.630;9.162;2023-05-20T07:00:29;97429.16;;;12.92;100.00
498;BME280;39559;48.630;9.162;2023-05-20T07:02:55;97422.91;;;13.12;100.00
498;BME280;39559;48.630;9.162;2023-05-20T07:05:20;97416.16;;;13.23;100.00
498;BME280;39559;48.630;9.162;2023-05-20T07:09:41;97413.16;;;13.31;100.00
498;BME280;39559;48.630;9.162;2023-05-20T07:12:07;97413.47;;;13.25;100.00
498;BME280;39559;48.630;9.162;2023-05-20T07:14:32;97416.44;;;13.35;100.00
498;BME280;39559;48.630;9.162;2023-05-20T07:16:58;97410.56;;;13.47;100.00
498;BME280;39559;48.630;9.162;2023-05-20T07:19:24;97410.19;;;13.53;100.00
498;BME280;39559;48.630;9.162;2023-05-20T07:21:50;97408.38;;;13.39;100.00
498;BME280;39559;48.630;9.162;2023-05-20T07:24:16;97412.13;;;13.50;100.00
498;BME280;39559;48.630;9.162;2023-05-20T07:26:42;97402.22;;;13.56;100.00
498;BME280;39559;48.630;9.162;2023-05-20T07:29:08;97397.06;;;13.55;100.00
498;BME280;39559;48.630;9.162;2023-05-20T07:33:41;97409.88;;;13.59;100.00
498;BME280;39559;48.630;9.162;2023-05-20T07:36:06;97409.97;;;13.58;100.00
498;BME280;39559;48.630;9.162;2023-05-20T07:38:32;97410.78;;;13.58;100.00
498;BME280;39559;48.630;9.162;2023-05-20T07:40:57;97405.66;;;13.57;100.00
498;BME280;39559;48.630;9.162;2023-05-20T07:43:23;97400.88;;;13.49;100.00
498;BME280;39559;48.630;9.162;2023-05-20T07:45:48;97399.44;;;13.43;100.00
498;BME280;39559;48.630;9.162;2023-05-20T07:48:14;97383.94;;;13.56;100.00
498;BME280;39559;48.630;9.162;2023-05-20T07:50:40;97378.41;;;13.62;100.00
498;BME280;39559;48.630;9.162;2023-05-20T07:53:06;97372.66;;;13.72;100.00
498;BME280;39559;48.630;9.162;2023-05-20T07:57:38;97386.59;;;13.87;100.00
498;BME280;39559;48.630;9.162;2023-05-20T08:00:04;97393.47;;;13.88;100.00
498;BME280;39559;48.630;9.162;2023-05-20T08:02:30;97386.38;;;13.75;100.00
498;BME280;39559;48.630;9.162;2023-05-20T08:04:56;97384.50;;;13.77;100.00
498;BME280;39559;48.630;9.162;2023-05-20T08:07:21;97388.44;;;13.85;100.00
498;BME280;39559;48.630;9.162;2023-05-20T08:09:47;97396.50;;;13.96;100.00
498;BME280;39559;48.630;9.162;2023-05-20T08:12:12;97397.63;;;13.92;100.00
498;BME280;39559;48.630;9.162;2023-05-20T08:14:38;97402.63;;;13.95;100.00
498;BME280;39559;48.630;9.162;2023-05-20T08:17:03;97412.94;;;13.82;100.00
498;BME280;39559;48.630;9.162;2023-05-20T08:21:43;97409.25;;;13.86;100.00
498;BME280;39559;48.630;9.162;2023-05-20T08:24:09;97411.81;;;14.02;100.00
498;BME280;39559;48.630;9.162;2023-05-20T08:26:34;97407.63;;;13.83;100.00
498;BME280;39559;48.630;9.162;2023-05-20T08:29:00;97409.56;;;13.96;100.00
498;BME280;39559;48.630;9.162;2023-05-20T08:31:25;97408.56;;;14.13;100.00
498;BME280;39559;48.630;9.162;2023-05-20T08:33:51;97412.59;;;14.18;100.00
498;BME280;39559;48.630;9.162;2023-05-20T08:36:16;97414.78;;;14.26;100.00
498;BME280;39559;48.630;9.162;2023-05-20T08:38:43;97408.47;;;14.45;100.00
498;BME280;39559;48.630;9.162;2023-05-20T08:41:09;97394.81;;;14.70;100.00
498;BME280;39559;48.630;9.162;2023-05-20T08:45:37;97393.59;;;14.90;100.00
498;BME280;39559;48.630;9.162;2023-05-20T08:48:03;97390.09;;;14.75;100.00
498;BME280;39559;48.630;9.162;2023-05-20T08:50:29;97388.72;;;14.69;100.00
498;BME280;39559;48.630;9.162;2023-05-20T08:52:55;97387.56;;;14.88;100.00
498;BME280;39559;48.630;9.162;2023-05-20T08:55:29;97386.56;;;15.05;100.00
498;BME280;39559;48.630;9.162;2023-05-20T08:58:01;97379.22;;;15.24;100.00
498;BME280;39559;48.630;9.162;2023-05-20T09:00:27;97375.22;;;15.19;100.00
498;BME280;39559;48.630;9.162;2023-05-20T09:02:54;97380.75;;;15.14;100.00
498;BME280;39559;48.630;9.162;2023-05-20T09:05:21;97380.72;;;15.28;100.00
498;BME280;39559;48.630;9.162;2023-05-20T09:09:32;97387.63;;;15.15;100.00
498;BME280;39559;48.630;9.162;2023-05-20T09:12:00;97379.44;;;15.21;100.00
498;BME280;39559;48.630;9.162;2023-05-20T09:14:31;97380.34;;;15.20;100.00
498;BME280;39559;48.630;9.162;2023-05-20T09:16:57;97378.16;;;15.41;100.00
498;BME280;39559;48.630;9.162;2023-05-20T09:19:23;97379.44;;;15.48;100.00
498;BME280;39559;48.630;9.162;2023-05-20T09:21:52;97383.88;;;15.33;100.00
498;BME280;39559;48.630;9.162;2023-05-20T09:24:24;97372.06;;;15.41;100.00
498;BME280;39559;48.630;9.162;2023-05-20T09:26:51;97367.44;;;15.59;100.00
498;BME280;39559;48.630;9.162;2023-05-20T09:29:16;97373.09;;;15.80;100.00
498;BME280;39559;48.630;9.162;2023-05-20T09:33:29;97378.56;;;16.02;100.00
498;BME280;39559;48.630;9.162;2023-05-20T09:36:03;97377.44;;;16.06;100.00
498;BME280;39559;48.630;9.162;2023-05-20T09:38:33;97375.25;;;16.26;100.00
498;BME280;39559;48.630;9.162;2023-05-20T09:41:12;97365.72;;;16.25;100.00
498;BME280;39559;48.630;9.162;2023-05-20T09:43:41;97358.28;;;16.19;100.00
498;BME280;39559;48.630;9.162;2023-05-20T09:46:07;97368.44;;;16.10;100.00
498;BME280;39559;48.630;9.162;2023-05-20T09:48:36;97365.09;;;16.08;100.00
498;BME280;39559;48.630;9.162;2023-05-20T09:51:03;97362.19;;;15.86;100.00
498;BME280;39559;48.630;9.162;2023-05-20T09:53:32;97365.25;;;15.92;100.00
498;BME280;39559;48.630;9.162;2023-05-20T09:57:23;97359.31;;;16.16;100.00
498;BME280;39559;48.630;9.162;2023-05-20T09:59:49;97355.16;;;16.39;100.00
498;BME280;39559;48.630;9.162;2023-05-20T10:02:16;97349.91;;;16.52;100.00
498;BME280;39559;48.630;9.162;2023-05-20T10:04:44;97346.00;;;16.70;100.00
498;BME280;39559;48.630;9.162;2023-05-20T10:21:23;97327.63;;;16.96;98.81
498;BME280;39559;48.630;9.162;2023-05-20T10:23:49;97327.66;;;17.20;100.00
498;BME280;39559;48.630;9.162;2023-05-20T10:26:16;97324.59;;;17.51;100.00
498;BME280;39559;48.630;9.162;2023-05-20T10:28:43;97331.25;;;17.43;98.93
498;BME280;39559;48.630;9.162;2023-05-20T10:31:22;97331.97;;;17.45;97.00
498;BME280;39559;48.630;9.162;2023-05-20T10:33:51;97329.09;;;17.73;100.00
498;BME280;39559;48.630;9.162;2023-05-20T10:36:27;97327.97;;;17.88;99.95
498;BME280;39559;48.630;9.162;2023-05-20T10:38:57;97320.38;;;17.96;99.34
498;BME280;39559;48.630;9.162;2023-05-20T10:41:25;97312.78;;;18.50;99.28
498;BME280;39559;48.630;9.162;2023-05-20T10:45:26;97306.31;;;18.42;94.35
498;BME280;39559;48.630;9.162;2023-05-20T10:47:56;97300.59;;;18.83;96.39
498;BME280;39559;48.630;9.162;2023-05-20T10:50:36;97298.81;;;18.94;92.81
498;BME280;39559;48.630;9.162;2023-05-20T10:53:06;97299.91;;;18.92;92.17
498;BME280;39559;48.630;9.162;2023-05-20T10:55:37;97294.50;;;18.59;92.27
498;BME280;39559;48.630;9.162;2023-05-20T10:58:04;97293.06;;;18.44;92.20
498;BME280;39559;48.630;9.162;2023-05-20T11:00:33;97293.50;;;18.04;86.88
498;BME280;39559;48.630;9.162;2023-05-20T11:02:59;97296.94;;;17.93;93.98
498;BME280;39559;48.630;9.162;2023-05-20T11:05:25;97290.97;;;18.02;88.42
498;BME280;39559;48.630;9.162;2023-05-20T11:09:15;97274.78;;;18.31;90.50
498;BME280;39559;48.630;9.162;2023-05-20T11:11:40;97276.59;;;18.65;92.96
498;BME280;39559;48.630;9.162;2023-05-20T11:14:06;97273.81;;;18.77;89.06
498;BME280;39559;48.630;9.162;2023-05-20T11:16:32;97273.47;;;18.59;83.70
498;BME280;39559;48.630;9.162;2023-05-20T11:18:57;97273.00;;;18.54;89.59
498;BME280;39559;48.630;9.162;2023-05-20T11:21:23;97271.41;;;18.74;84.20
498;BME280;39559;48.630;9.162;2023-05-20T11:23:50;97272.72;;;18.91;86.78
498;BME280;39559;48.630;9.162;2023-05-20T11:26:16;97263.19;;;19.34;84.98
498;BME280;39559;48.630;9.162;2023-05-20T11:28:41;97257.63;;;19.37;84.53
498;BME280;39559;48.630;9.162;2023-05-20T11:33:19;97263.97;;;19.67;84.19
498;BME280;39559;48.630;9.162;2023-05-20T11:35:47;97265.09;;;19.32;80.91
498;BME280;39559;48.630;9.162;2023-05-20T11:38:18;97261.69;;;19.09;83.42
498;BME280;39559;48.630;9.162;2023-05-20T11:40:51;97254.97;;;19.16;86.09
498;BME280;39559;48.630;9.162;2023-05-20T11:43:17;97254.13;;;19.15;86.12
498;BME280;39559;48.630;9.162;2023-05-20T11:45:45;97253.06;;;19.18;83.69
498;BME280;39559;48.630;9.162;2023-05-20T11:48:12;97251.38;;;19.17;85.26
498;BME280;39559;48.630;9.162;2023-05-20T11:50:44;97248.78;;;19.06;81.64
498;BME280;39559;48.630;9.162;2023-05-20T11:53:18;97246.44;;;19.24;89.57
498;BME280;39559;48.630;9.162;2023-05-20T11:57:08;97237.03;;;19.42;81.70
498;BME280;39559;48.630;9.162;2023-05-20T11:59:33;97240.34;;;19.23;80.81
498;BME280;39559;48.630;9.162;2023-05-20T12:01:59;97238.19;;;19.28;81.20
498;BME280;39559;48.630;9.162;2023-05-20T12:04:24;97233.97;;;20.00;83.12
498;BME280;39559;48.630;9.162;2023-05-20T12:06:50;97231.94;;;20.35;83.31
498;BME280;39559;48.630;9.162;2023-05-20T12:09:17;97230.69;;;20.08;82.05
498;BME280;39559;48.630;9.162;2023-05-20T12:11:42;97232.03;;;20.02;80.72
498;BME280;39559;48.630;9.162;2023-05-20T12:14:09;97217.91;;;19.82;76.37
498;BME280;39559;48.630;9.162;2023-05-20T12:16:36;97211.50;;;20.27;77.87
498;BME280;39559;48.630;9.162;2023-05-20T12:21:04;97210.38;;;20.29;72.01
498;BME280;39559;48.630;9.162;2023-05-20T12:23:29;97213.06;;;19.78;78.83
498;BME280;39559;48.630;9.162;2023-05-20T12:25:58;97211.41;;;19.86;79.67
498;BME280;39559;48.630;9.162;2023-05-20T12:28:24;97211.25;;;20.40;78.47
498;BME280;39559;48.630;9.162;2023-05-20T12:30:49;97215.09;;;20.66;77.90
498;BME280;39559;48.630;9.162;2023-05-20T12:33:15;97201.03;;;20.56;73.60
498;BME280;39559;48.630;9.162;2023-05-20T12:35:42;97205.41;;;20.86;74.84
498;BME280;39559;48.630;9.162;2023-05-20T12:38:08;97217.03;;;20.64;73.26
498;BME280;39559;48.630;9.162;2023-05-20T12:40:41;97226.50;;;20.67;73.51
498;BME280;39559;48.630;9.162;2023-05-20T12:45:01;97216.47;;;20.20;73.95
498;BME280;39559;48.630;9.162;2023-05-20T12:47:27;97208.91;;;20.46;73.33
498;BME280;39559;48.630;9.162;2023-05-20T12:49:53;97203.34;;;20.80;77.27
498;BME280;39559;48.630;9.162;2023-05-20T12:52:18;97191.81;;;20.81;70.54
498;BME280;39559;48.630;9.162;2023-05-20T12:54:44;97200.16;;;21.35;75.80
498;BME280;39559;48.630;9.162;2023-05-20T12:57:10;97190.59;;;21.63;69.43
498;BME280;39559;48.630;9.162;2023-05-20T12:59:36;97183.75;;;21.61;64.96
498;BME280;39559;48.630;9.162;2023-05-20T13:02:02;97188.84;;;21.92;68.09
498;BME280;39559;48.630;9.162;2023-05-20T13:04:27;97173.09;;;21.90;66.38
498;BME280;39559;48.630;9.162;2023-05-20T13:08:55;97176.69;;;21.42;65.54
498;BME280;39559;48.630;9.162;2023-05-20T13:11:20;97180.16;;;21.03;64.82
498;BME280;39559;48.630;9.162;2023-05-20T13:13:46;97164.19;;;21.05;67.96
498;BME280;39559;48.630;9.162;2023-05-20T13:16:11;97177.50;;;20.84;66.65
498;BME280;39559;48.630;9.162;2023-05-20T13:18:37;97167.66;;;21.05;67.28
498;BME280;39559;48.630;9.162;2023-05-20T13:21:02;97166.25;;;21.31;70.10
498;BME280;39559;48.630;9.162;2023-05-20T13:23:28;97165.69;;;21.46;67.08
498;BME280;39559;48.630;9.162;2023-05-20T13:25:54;97166.38;;;21.39;69.15
498;BME280;39559;48.630;9.162;2023-05-20T13:28:19;97167.78;;;21.33;65.73
498;BME280;39559;48.630;9.162;2023-05-20T13:32:50;97158.22;;;21.13;66.81
498;BME280;39559;48.630;9.162;2023-05-20T13:35:16;97158.50;;;21.00;67.02
498;BME280;39559;48.630;9.162;2023-05-20T13:37:41;97160.41;;;20.68;67.97
498;BME280;39559;48.630;9.162;2023-05-20T13:40:07;97157.25;;;20.94;66.88
498;BME280;39559;48.630;9.162;2023-05-20T13:42:33;97155.81;;;20.90;68.56
498;BME280;39559;48.630;9.162;2023-05-20T13:44:59;97153.63;;;20.95;67.21
498;BME280;39559;48.630;9.162;2023-05-20T13:47:24;97147.09;;;21.09;66.52
498;BME280;39559;48.630;9.162;2023-05-20T13:49:50;97141.78;;;21.19;67.74
498;BME280;39559;48.630;9.162;2023-05-20T13:52:15;97144.88;;;21.14;68.71
498;BME280;39559;48.630;9.162;2023-05-20T13:56:47;97137.78;;;20.76;73.10
498;BME280;39559;48.630;9.162;2023-05-20T13:59:13;97140.28;;;20.87;73.52
498;BME280;39559;48.630;9.162;2023-05-20T14:01:38;97129.31;;;21.01;72.59
498;BME280;39559;48.630;9.162;2023-05-20T14:04:10;97132.34;;;21.06;69.09
498;BME280;39559;48.630;9.162;2023-05-20T14:06:39;97128.88;;;21.25;73.04
498;BME280;39559;48.630;9.162;2023-05-20T14:09:06;97124.84;;;21.12;69.14
498;BME280;39559;48.630;9.162;2023-05-20T14:11:35;97120.56;;;21.11;66.81
498;BME280;39559;48.630;9.162;2023-05-20T14:14:01;97130.13;;;21.12;68.23
498;BME280;39559;48.630;9.162;2023-05-20T14:16:26;97126.81;;;21.00;67.94
498;BME280;39559;48.630;9.162;2023-05-20T14:20:40;97120.41;;;20.83;65.89
498;BME280;39559;48.630;9.162;2023-05-20T14:23:05;97109.84;;;21.02;66.54
498;BME280;39559;48.630;9.162;2023-05-20T14:25:31;97112.91;;;20.88;65.17
498;BME280;39559;48.630;9.162;2023-05-20T14:27:56;97115.41;;;20.89;67.28
498;BME280;39559;48.630;9.162;2023-05-20T14:30:22;97113.63;;;20.70;68.52
498;BME280;39559;48.630;9.162;2023-05-20T14:32:47;97103.88;;;20.61;65.63
498;BME280;39559;48.630;9.162;2023-05-20T14:35:13;97107.09;;;20.75;69.90
498;BME280;39559;48.630;9.162;2023-05-20T14:37:39;97105.97;;;20.67;69.00